createdAt,value
2022-10-28T00:00:06.598Z,23.1
2022-10-28T00:15:05.550Z,23.0
2022-10-28T00:30:02.739Z,23
2022-10-28T00:45:03.057Z,23
2022-10-28T01:00:06.291Z,22.9
2022-10-28T01:15:02.730Z,22.9
2022-10-28T01:30:03.859Z,22.9
2022-10-28T01:45:02.468Z,22.9
2022-10-28T02:00:05.523Z,22.9
2022-10-28T02:15:02.196Z,22.9
2022-10-28T02:30:06.039Z,22.8
2022-10-28T02:45:02.218Z,22.8
2022-10-28T03:00:06.084Z,22.8
2022-10-28T03:15:03.308Z,22.8
2022-10-28T03:30:06.304Z,22.8
2022-10-28T03:45:01.988Z,22.8
2022-10-28T04:00:04.692Z,22.8
2022-10-28T04:15:03.438Z,22.8
2022-10-28T04:30:04.099Z,22.8
2022-10-28T04:45:03.216Z,22.7
2022-10-28T05:00:07.244Z,22.7
2022-10-28T05:15:02.734Z,22.7
2022-10-28T05:30:05.200Z,22.7
2022-10-28T05:45:02.069Z,22.7
2022-10-28T06:00:10.236Z,22.8
2022-10-28T06:15:02.705Z,22.8
2022-10-28T06:30:05.988Z,22.8
2022-10-28T06:45:05.302Z,22.8
2022-10-28T07:00:06.172Z,22.9
2022-10-28T07:15:03.761Z,22.9
2022-10-28T07:30:05.554Z,23.0
2022-10-28T07:45:05.007Z,23
2022-10-28T08:00:07.432Z,23.1
2022-10-28T08:15:02.689Z,23.1
2022-10-28T08:30:03.507Z,23.2
2022-10-28T08:45:03.988Z,23.3
2022-10-28T09:00:06.100Z,23.4
2022-10-28T09:15:03.530Z,23.8
2022-10-28T09:30:09.860Z,23.9
2022-10-28T09:45:02.785Z,24.1
2022-10-28T10:00:08.559Z,24.2
2022-10-28T10:15:03.718Z,24.4
2022-10-28T10:30:04.400Z,24.5
2022-10-28T10:45:03.596Z,24.8
2022-10-28T11:00:08.738Z,24.9
2022-10-28T11:15:03.132Z,25.1
2022-10-28T11:30:07.773Z,25.1
2022-10-28T11:45:03.865Z,25.2
2022-10-28T12:00:10.022Z,25.3
2022-10-28T12:15:03.794Z,25.2
2022-10-28T12:30:06.190Z,25.2
2022-10-28T12:45:04.345Z,25.2
2022-10-28T13:00:07.693Z,25.2
2022-10-28T13:15:02.933Z,25.2
2022-10-28T13:30:06.830Z,25.3
2022-10-28T13:45:02.685Z,25.4
2022-10-28T14:00:06.012Z,25.4
2022-10-28T14:15:04.912Z,25.4
2022-10-28T14:30:08.160Z,25.4
2022-10-28T14:45:02.526Z,25.4
2022-10-28T15:00:07.106Z,25.4
2022-10-28T15:15:05.567Z,25.4
2022-10-28T15:30:06.800Z,25.3
2022-10-28T15:45:04.326Z,25.3
2022-10-28T16:00:08.984Z,25.2
2022-10-28T16:15:03.051Z,25.1
2022-10-28T16:30:08.017Z,25.1
2022-10-28T16:45:03.321Z,25.0
2022-10-28T17:00:12.422Z,25
2022-10-28T17:15:03.355Z,24.9
2022-10-28T17:30:05.040Z,24.8
2022-10-28T17:45:06.213Z,24.7
2022-10-28T18:00:10.258Z,24.6
2022-10-28T18:15:02.733Z,24.5
2022-10-28T18:30:06.802Z,24.4
2022-10-28T18:45:04.797Z,24.3
2022-10-28T19:00:17.741Z,24.3
2022-10-28T19:15:02.037Z,24.2
2022-10-28T19:30:07.861Z,24.1
2022-10-28T19:45:03.551Z,24.1
2022-10-28T20:00:07.953Z,24.0
2022-10-28T20:15:03.191Z,23.9
2022-10-28T20:30:07.482Z,23.9
2022-10-28T20:45:03.184Z,23.8
2022-10-28T21:00:07.890Z,23.8
2022-10-28T21:15:02.629Z,23.7
2022-10-28T21:30:04.487Z,23.7
2022-10-28T21:45:02.263Z,23.6
2022-10-28T22:00:06.491Z,23.6
2022-10-28T22:15:02.332Z,23.5
2022-10-28T22:30:06.222Z,23.5
2022-10-28T22:45:02.236Z,23.4
2022-10-28T23:00:05.820Z,23.4
2022-10-28T23:15:03.223Z,23.4
2022-10-28T23:30:05.911Z,23.3
2022-10-28T23:45:02.146Z,23.3
